Time;durP1;ratioP1;P1;durP2;ratioP2;P2;SDS_P1;SDS_P2;PMS_P1;PMS_P2;Temp;Humidity;BMP_temperature;BMP_pressure;BME280_temperature;BME280_humidity;BME280_pressure;Samples;Min_cycle;Max_cycle;Signal;HPM_P1;HPM_P2
2022/10/19 00:00:19;;;;;;;2.30;0.73;;;;;;;10.42;67.58;99199.91;5054599;28;20056;-62
2022/10/19 00:02:45;;;;;;;1.17;0.90;;;;;;;10.41;67.76;99198.22;5054114;28;20463;-62
2022/10/19 00:05:11;;;;;;;1.75;0.55;;;;;;;10.39;67.52;99203.69;5054429;28;20024;-61
2022/10/19 00:07:36;;;;;;;1.20;0.98;;;;;;;10.39;67.90;99192.13;5046477;28;20037;-63
2022/10/19 00:10:03;;;;;;;0.95;0.70;;;;;;;10.42;67.73;99203.44;5034454;28;20029;-61
2022/10/19 00:12:29;;;;;;;2.08;0.75;;;;;;;10.39;67.79;99197.47;5049118;28;20037;-62
2022/10/19 00:14:54;;;;;;;0.98;0.75;;;;;;;10.38;67.66;99180.59;5054170;28;20398;-62
2022/10/19 00:17:19;;;;;;;1.70;0.70;;;;;;;10.41;67.44;99180.34;5054480;28;20055;-61
2022/10/19 00:19:45;;;;;;;3.03;0.70;;;;;;;10.39;67.33;99173.41;5054987;28;20347;-61
2022/10/19 00:22:10;;;;;;;2.65;0.90;;;;;;;10.40;67.03;99159.94;5053874;28;20053;-62
2022/10/19 00:24:36;;;;;;;0.95;0.70;;;;;;;10.23;67.55;99128.47;5053871;28;20025;-65
2022/10/19 00:27:01;;;;;;;1.95;0.85;;;;;;;10.39;68.01;99160.88;5041023;28;20030;-61
2022/10/19 00:29:27;;;;;;;1.95;0.80;;;;;;;10.38;68.20;99153.84;5033847;28;20033;-61
2022/10/19 00:31:52;;;;;;;2.78;0.90;;;;;;;10.39;67.97;99155.53;5035561;28;20063;-62
2022/10/19 00:34:18;;;;;;;2.35;0.93;;;;;;;10.40;67.48;99167.97;5069734;28;20063;-62
2022/10/19 00:36:43;;;;;;;1.20;0.82;;;;;;;10.37;67.38;99146.81;5053759;28;20339;-61
2022/10/19 00:39:14;;;;;;;2.33;0.80;;;;;;;10.29;67.45;99127.91;5053449;28;20064;-61
2022/10/19 00:41:41;;;;;;;1.40;0.90;;;;;;;10.40;67.15;99151.91;5053222;28;20065;-62
2022/10/19 00:44:14;;;;;;;2.70;1.05;;;;;;;10.48;67.56;99157.38;5053826;28;20037;-66
2022/10/19 00:46:47;;;;;;;3.10;1.00;;;;;;;10.45;67.10;99141.63;5042619;28;20040;-63
2022/10/19 00:49:19;;;;;;;2.72;0.80;;;;;;;10.48;66.50;99144.00;5032839;28;20034;-61
2022/10/19 00:52:16;;;;;;;1.65;0.60;;;;;;;10.56;67.01;99137.97;5035148;28;20032;-62
2022/10/19 00:54:44;;;;;;;1.42;0.73;;;;;;;10.42;66.38;99131.19;5046457;28;20047;-63
2022/10/19 00:57:11;;;;;;;1.92;0.75;;;;;;;10.45;67.00;99141.63;5053299;28;20037;-59
2022/10/19 00:59:38;;;;;;;1.38;0.80;;;;;;;10.43;66.84;99153.44;5053461;28;20029;-61
2022/10/19 01:02:05;;;;;;;2.78;0.70;;;;;;;10.41;66.96;99147.38;5053570;28;20471;-61
2022/10/19 01:04:34;;;;;;;1.98;0.80;;;;;;;10.45;66.81;99144.28;5034329;28;20040;-62
2022/10/19 01:07:02;;;;;;;1.50;0.60;;;;;;;10.44;67.50;99136.38;5046885;28;20032;-62
2022/10/19 01:09:27;;;;;;;0.70;0.65;;;;;;;10.42;67.15;99136.53;5052913;28;20037;-62
2022/10/19 01:12:17;;;;;;;1.50;0.73;;;;;;;10.54;66.76;99147.09;5053237;28;20090;-62
2022/10/19 01:14:45;;;;;;;1.58;0.60;;;;;;;10.45;66.66;99127.38;5050359;28;20047;-62
2022/10/19 01:17:27;;;;;;;2.30;0.60;;;;;;;10.50;66.36;99143.03;5033103;28;20103;-62
2022/10/19 01:20:23;;;;;;;1.17;0.50;;;;;;;10.52;66.69;99131.19;5032774;28;20025;-62
2022/10/19 01:23:09;;;;;;;0.93;0.75;;;;;;;10.54;66.63;99117.66;5048922;28;20044;-62
2022/10/19 01:25:49;;;;;;;1.55;0.80;;;;;;;10.47;66.70;99130.75;5033309;28;20122;-61
2022/10/19 01:28:52;;;;;;;1.25;0.50;;;;;;;10.52;66.63;99139.22;5032435;28;20409;-61
2022/10/19 01:31:28;;;;;;;0.70;0.50;;;;;;;10.47;65.96;99142.31;5032872;28;20049;-61
2022/10/19 01:34:16;;;;;;;1.27;0.65;;;;;;;10.50;66.04;99151.06;5032872;28;20111;-61
2022/10/19 01:36:59;;;;;;;0.60;0.60;;;;;;;10.40;65.87;99135.84;5039462;28;20029;-62
2022/10/19 01:39:42;;;;;;;1.00;0.60;;;;;;;10.43;65.97;99124.84;5052045;28;20124;-61
2022/10/19 01:42:28;;;;;;;1.35;0.57;;;;;;;10.40;65.91;99133.16;5035798;28;20092;-62
2022/10/19 01:45:08;;;;;;;3.13;0.80;;;;;;;10.49;65.70;99107.41;5028420;28;20041;-61
2022/10/19 01:47:45;;;;;;;1.15;0.70;;;;;;;10.40;65.21;99101.06;5032425;28;20373;-62
2022/10/19 01:50:17;;;;;;;2.10;0.80;;;;;;;10.36;65.37;99096.09;5032824;28;20025;-65
2022/10/19 01:52:43;;;;;;;0.70;0.50;;;;;;;10.38;65.34;99111.03;5032588;28;20030;-62
2022/10/19 01:55:12;;;;;;;1.27;0.90;;;;;;;10.40;65.12;99095.72;5034343;28;20396;-63
2022/10/19 01:57:53;;;;;;;2.13;0.82;;;;;;;10.28;65.38;99064.69;5046241;28;20041;-63
2022/10/19 02:00:22;;;;;;;1.30;0.80;;;;;;;10.40;65.11;99082.31;5052361;28;20059;-61
2022/10/19 02:02:52;;;;;;;2.35;0.80;;;;;;;10.36;65.24;99080.84;5052144;28;20029;-61
2022/10/19 02:05:21;;;;;;;1.80;0.85;;;;;;;10.38;65.75;99072.72;5052172;28;20044;-61
2022/10/19 02:07:55;;;;;;;1.35;0.93;;;;;;;10.37;65.39;99061.16;5052225;28;20061;-62
2022/10/19 02:10:21;;;;;;;1.15;0.60;;;;;;;10.32;65.09;99068.75;5052168;28;20456;-61
2022/10/19 02:12:48;;;;;;;1.05;0.55;;;;;;;10.28;65.48;99070.03;5052052;28;20448;-61
2022/10/19 02:15:18;;;;;;;2.67;0.70;;;;;;;10.31;65.34;99073.28;5052369;28;20056;-61
2022/10/19 02:17:49;;;;;;;3.10;0.65;;;;;;;10.34;65.18;99062.28;5050375;28;20115;-62
2022/10/19 02:20:15;;;;;;;1.13;0.70;;;;;;;10.25;64.75;99056.94;5032056;28;20060;-61
2022/10/19 02:22:41;;;;;;;0.90;0.50;;;;;;;10.25;65.14;99059.63;5032785;28;20026;-62
2022/10/19 02:25:08;;;;;;;1.40;0.70;;;;;;;10.23;65.18;99054.38;5050816;28;20107;-62
2022/10/19 02:27:35;;;;;;;1.00;0.50;;;;;;;10.14;65.20;99044.53;5051889;28;20099;-61
2022/10/19 02:30:02;;;;;;;1.10;0.80;;;;;;;10.18;65.19;99048.63;5052188;28;20029;-61
2022/10/19 02:32:29;;;;;;;1.38;0.90;;;;;;;10.00;64.87;99019.06;5051982;28;20037;-61
2022/10/19 02:34:54;;;;;;;1.48;0.75;;;;;;;10.14;65.40;99050.75;5051770;28;20367;-62
2022/10/19 02:37:20;;;;;;;1.20;0.57;;;;;;;9.95;65.31;99010.63;5051114;28;20043;-62
2022/10/19 02:39:46;;;;;;;0.90;0.60;;;;;;;10.12;65.37;99028.63;5032623;28;20029;-61
2022/10/19 02:42:17;;;;;;;1.50;0.50;;;;;;;10.13;65.20;99033.00;5032167;28;20046;-61
2022/10/19 02:44:59;;;;;;;0.68;0.45;;;;;;;10.22;65.37;99028.63;5047858;28;20045;-60
2022/10/19 02:47:34;;;;;;;2.83;0.73;;;;;;;10.20;65.40;99034.13;5053842;28;20037;-62
2022/10/19 02:50:03;;;;;;;1.58;0.80;;;;;;;10.15;65.83;99031.03;5055775;28;20420;-62
2022/10/19 02:52:29;;;;;;;2.83;0.68;;;;;;;10.02;65.58;98993.03;5055527;28;20341;-62
2022/10/19 02:54:54;;;;;;;2.95;0.80;;;;;;;10.16;65.32;99019.34;5055295;28;20048;-61
2022/10/19 02:57:22;;;;;;;1.95;0.80;;;;;;;10.09;65.92;99015.53;5054356;28;20024;-61
2022/10/19 02:59:49;;;;;;;2.45;0.90;;;;;;;10.11;65.83;99018.91;5051297;28;20029;-61
2022/10/19 03:02:15;;;;;;;0.77;0.77;;;;;;;10.08;66.06;99018.38;5035737;28;20436;-61
2022/10/19 03:04:41;;;;;;;0.73;0.50;;;;;;;9.89;65.94;98985.28;5048549;28;20399;-63
2022/10/19 03:07:16;;;;;;;3.72;0.90;;;;;;;10.14;66.08;99020.47;5054585;28;20040;-62
2022/10/19 03:09:42;;;;;;;1.40;0.80;;;;;;;10.14;65.74;99012.44;5055009;28;20125;-61
2022/10/19 03:12:08;;;;;;;2.97;1.00;;;;;;;9.98;66.15;98991.63;5055253;28;20029;-61
2022/10/19 03:14:34;;;;;;;2.45;1.10;;;;;;;10.14;66.25;99015.97;5043875;28;20110;-62
2022/10/19 03:16:59;;;;;;;2.05;1.10;;;;;;;10.12;66.27;99014.41;5035551;28;20440;-61
2022/10/19 03:19:24;;;;;;;2.00;0.90;;;;;;;10.10;66.24;99013.72;5052905;28;20120;-62
2022/10/19 03:21:50;;;;;;;1.05;0.85;;;;;;;10.05;66.34;99016.81;5055362;28;20086;-61
2022/10/19 03:24:16;;;;;;;3.50;0.75;;;;;;;9.98;66.75;99003.16;5055355;28;20455;-63
2022/10/19 03:26:41;;;;;;;1.00;0.80;;;;;;;10.00;66.93;99008.38;5055375;28;20025;-62
2022/10/19 03:29:07;;;;;;;1.85;0.73;;;;;;;9.96;67.18;99002.44;5046393;28;20030;-61
2022/10/19 03:31:32;;;;;;;2.95;0.52;;;;;;;9.94;66.52;98999.06;5034782;28;20037;-61
2022/10/19 03:33:58;;;;;;;2.47;0.65;;;;;;;9.95;66.18;98991.91;5034924;28;20510;-62
2022/10/19 03:36:26;;;;;;;2.30;0.50;;;;;;;9.91;66.23;99002.88;5034974;28;20041;-64
2022/10/19 03:38:53;;;;;;;1.52;0.70;;;;;;;9.91;66.67;99000.22;5053904;28;20090;-62
2022/10/19 03:41:20;;;;;;;1.15;0.70;;;;;;;9.92;66.59;98998.38;5054685;28;20049;-62
2022/10/19 03:43:46;;;;;;;1.25;0.80;;;;;;;9.93;66.74;98997.38;5055057;28;20033;-63
2022/10/19 03:46:11;;;;;;;1.45;0.82;;;;;;;9.89;66.51;98987.94;5053729;28;20033;-62
2022/10/19 03:48:37;;;;;;;2.92;0.90;;;;;;;9.88;66.82;98983.59;5039054;28;20503;-63
2022/10/19 03:51:05;;;;;;;1.42;1.13;;;;;;;9.91;67.37;98976.16;5034657;28;20112;-61
2022/10/19 03:53:30;;;;;;;2.28;1.60;;;;;;;9.82;67.16;98971.63;5053788;28;20029;-62
2022/10/19 03:56:17;;;;;;;6.55;2.30;;;;;;;9.96;67.28;98966.84;5053660;28;20067;-62
2022/10/19 03:58:44;;;;;;;4.80;3.33;;;;;;;9.84;68.21;98964.31;5034000;28;20029;-62
2022/10/19 04:01:12;;;;;;;5.72;3.40;;;;;;;9.76;68.44;98967.66;5043158;28;20040;-60
2022/10/19 04:03:38;;;;;;;5.22;3.45;;;;;;;9.54;69.86;98967.97;5038946;28;20029;-61
2022/10/19 04:06:06;;;;;;;5.03;3.25;;;;;;;9.51;70.31;98962.88;5034212;28;20132;-61
2022/10/19 04:08:32;;;;;;;7.25;3.63;;;;;;;9.50;70.45;98969.19;5046216;28;20040;-60
2022/10/19 04:11:00;;;;;;;5.28;3.72;;;;;;;9.38;71.04;98941.75;5053620;28;20025;-66
2022/10/19 04:13:26;;;;;;;5.88;3.55;;;;;;;9.53;70.87;98948.41;5053550;28;20025;-61
2022/10/19 04:15:51;;;;;;;5.22;3.67;;;;;;;9.53;70.71;98935.03;5053564;28;20367;-65
2022/10/19 04:18:16;;;;;;;6.63;3.40;;;;;;;9.57;70.22;98932.94;5035185;28;20111;-64
2022/10/19 04:20:42;;;;;;;4.55;3.53;;;;;;;9.60;70.26;98938.81;5053082;28;20028;-70
2022/10/19 04:23:08;;;;;;;4.47;2.97;;;;;;;9.56;70.32;98932.09;5051679;28;20045;-65
2022/10/19 04:25:33;;;;;;;7.05;3.97;;;;;;;9.65;69.85;98921.56;5052638;28;20044;-64
2022/10/19 04:27:59;;;;;;;6.07;3.83;;;;;;;9.53;70.19;98931.53;5053760;28;20037;-65
2022/10/19 04:30:24;;;;;;;7.55;4.13;;;;;;;9.57;70.57;98932.94;5069540;28;20029;-61
2022/10/19 04:32:50;;;;;;;7.80;5.22;;;;;;;9.57;70.54;98935.63;5052170;28;20098;-62
2022/10/19 04:35:15;;;;;;;8.88;7.53;;;;;;;9.59;70.27;98933.63;5048473;28;20462;-61
2022/10/19 04:37:41;;;;;;;8.93;6.97;;;;;;;9.45;70.97;98932.22;5042678;28;20160;-62
2022/10/19 04:40:07;;;;;;;11.48;7.47;;;;;;;9.38;71.92;98933.75;5034464;28;20111;-62
2022/10/19 04:42:33;;;;;;;9.57;7.47;;;;;;;9.39;72.03;98933.63;5032420;28;20045;-63
2022/10/19 04:44:58;;;;;;;13.50;8.15;;;;;;;9.46;71.38;98928.56;5033386;28;20326;-61
2022/10/19 04:47:23;;;;;;;12.63;8.52;;;;;;;9.47;71.04;98930.25;5036999;28;20025;-62
2022/10/19 04:49:49;;;;;;;14.32;10.63;;;;;;;9.55;70.43;98930.38;5047030;28;20460;-60
2022/10/19 04:52:14;;;;;;;14.88;10.13;;;;;;;9.53;70.73;98918.19;5046912;28;20025;-61
2022/10/19 04:54:40;;;;;;;14.18;11.95;;;;;;;9.37;70.78;98916.88;5053399;28;20063;-60
2022/10/19 04:57:05;;;;;;;16.42;12.70;;;;;;;9.42;70.58;98919.16;5053230;28;20033;-62
2022/10/19 04:59:31;;;;;;;17.10;12.55;;;;;;;9.38;71.11;98915.91;5052846;28;20380;-66
2022/10/19 05:01:56;;;;;;;16.73;13.15;;;;;;;9.42;71.35;98916.47;5053272;28;20375;-68
2022/10/19 05:04:22;;;;;;;19.50;14.10;;;;;;;9.55;70.32;98910.84;5052435;28;20025;-63
2022/10/19 05:06:47;;;;;;;21.00;13.43;;;;;;;9.64;69.88;98920.69;5051979;28;20432;-67
2022/10/19 05:09:12;;;;;;;15.25;13.63;;;;;;;9.46;71.25;98915.22;5051795;28;20156;-66
2022/10/19 05:11:38;;;;;;;22.80;17.25;;;;;;;9.56;70.60;98917.88;5052235;28;20517;-67
2022/10/19 05:14:03;;;;;;;20.23;16.17;;;;;;;9.52;70.77;98913.78;5052313;28;20409;-67
2022/10/19 05:16:29;;;;;;;19.15;15.57;;;;;;;9.43;70.79;98904.81;5052856;28;20033;-67
2022/10/19 05:18:57;;;;;;;20.05;15.50;;;;;;;9.43;71.11;98913.66;5053040;28;20021;-67
2022/10/19 05:21:23;;;;;;;18.08;15.35;;;;;;;9.51;70.76;98912.09;5053061;28;20348;-66
2022/10/19 05:23:53;;;;;;;20.80;15.80;;;;;;;9.44;70.83;98917.19;5040699;28;20021;-67
2022/10/19 05:26:22;;;;;;;22.80;15.10;;;;;;;9.42;70.79;98909.28;5046631;28;20037;-67
2022/10/19 05:28:49;;;;;;;16.90;12.93;;;;;;;9.62;69.41;98910.13;5032533;28;20069;-67
2022/10/19 05:31:17;;;;;;;15.23;11.63;;;;;;;9.61;68.91;98904.94;5032704;28;20095;-67
2022/10/19 05:33:43;;;;;;;16.35;12.90;;;;;;;9.38;70.14;98905.22;5049223;28;20181;-68
2022/10/19 05:36:20;;;;;;;15.23;11.93;;;;;;;9.27;70.10;98905.31;5052020;28;20029;-68
2022/10/19 05:38:48;;;;;;;18.80;11.80;;;;;;;9.28;70.36;98905.19;5051417;28;20044;-68
2022/10/19 05:41:15;;;;;;;15.68;11.23;;;;;;;9.27;70.37;98908.84;5048587;28;20816;-68
2022/10/19 05:43:42;;;;;;;16.73;10.95;;;;;;;9.28;70.09;98905.19;5031316;28;20133;-67
2022/10/19 05:46:11;;;;;;;15.02;10.98;;;;;;;9.27;70.11;98892.81;5050380;28;20096;-68
2022/10/19 05:48:37;;;;;;;15.07;10.00;;;;;;;9.35;70.09;98908.16;5047369;28;20179;-69
2022/10/19 05:51:04;;;;;;;15.00;9.75;;;;;;;9.40;69.70;98908.59;5051714;28;20094;-68
2022/10/19 05:53:31;;;;;;;12.57;8.45;;;;;;;9.51;69.21;98909.41;5052087;28;20463;-69
2022/10/19 05:55:57;;;;;;;13.82;8.57;;;;;;;9.53;68.37;98902.97;5046451;28;20459;-67
2022/10/19 05:58:23;;;;;;;14.70;8.73;;;;;;;9.47;68.78;98898.19;5035626;28;20068;-68
2022/10/19 06:00:53;;;;;;;12.77;8.38;;;;;;;9.54;68.46;98901.16;5048540;28;20025;-68
2022/10/19 06:03:20;;;;;;;12.63;8.75;;;;;;;9.34;68.57;98899.28;5049741;28;20037;-68
2022/10/19 06:05:47;;;;;;;11.85;9.27;;;;;;;9.32;68.62;98895.91;5052036;28;20136;-67
2022/10/19 06:08:12;;;;;;;13.55;9.52;;;;;;;9.27;68.84;98895.50;5065555;28;20115;-68
2022/10/19 06:10:38;;;;;;;11.98;6.30;;;;;;;9.46;68.04;98901.84;5050699;28;20124;-68
2022/10/19 06:13:03;;;;;;;8.60;6.38;;;;;;;9.35;68.36;98902.81;5050622;28;20040;-66
2022/10/19 06:15:32;;;;;;;8.13;5.70;;;;;;;9.28;69.43;98897.19;5051094;28;20041;-68
2022/10/19 06:17:58;;;;;;;8.30;5.68;;;;;;;9.26;69.38;98890.28;5044762;28;20037;-66
2022/10/19 06:20:23;;;;;;;6.95;5.78;;;;;;;9.15;70.72;98889.44;5033845;28;20030;-68
2022/10/19 06:22:48;;;;;;;5.95;5.30;;;;;;;9.08;70.86;98895.44;5043621;28;20087;-72
2022/10/19 06:25:14;;;;;;;7.68;5.60;;;;;;;9.10;71.35;98889.00;5045354;28;20029;-68
2022/10/19 06:27:39;;;;;;;6.75;4.80;;;;;;;9.19;70.73;98890.00;5039857;28;20148;-72
2022/10/19 06:30:05;;;;;;;8.93;5.90;;;;;;;9.19;70.94;98884.66;5047355;28;20044;-66
2022/10/19 06:32:32;;;;;;;7.57;6.13;;;;;;;9.26;70.36;98882.25;5053863;28;20037;-67
2022/10/19 06:34:58;;;;;;;8.05;5.90;;;;;;;8.99;71.26;98857.94;5040609;28;20057;-69
2022/10/19 06:37:23;;;;;;;8.82;6.40;;;;;;;9.01;72.00;98874.66;5053185;28;20430;-68
2022/10/19 06:39:49;;;;;;;7.85;6.40;;;;;;;9.10;71.14;98882.81;5046872;28;20029;-67
2022/10/19 06:42:14;;;;;;;7.65;6.53;;;;;;;9.07;71.45;98875.06;5035015;28;20056;-66
2022/10/19 06:44:39;;;;;;;9.30;7.22;;;;;;;9.15;71.50;98875.22;5052244;28;20056;-64
2022/10/19 06:47:05;;;;;;;8.48;6.50;;;;;;;9.12;71.34;98870.16;5036653;28;20120;-64
2022/10/19 06:49:30;;;;;;;10.10;6.80;;;;;;;9.08;71.53;98868.75;5035696;28;20061;-63
2022/10/19 06:51:56;;;;;;;8.05;6.63;;;;;;;9.12;71.07;98867.50;5051484;28;20111;-64
2022/10/19 06:54:24;;;;;;;10.82;6.95;;;;;;;9.04;71.79;98877.03;5055333;28;20040;-62
2022/10/19 06:56:49;;;;;;;9.60;7.53;;;;;;;8.99;72.34;98884.63;5055774;28;20094;-62
2022/10/19 06:59:16;;;;;;;11.13;7.95;;;;;;;8.91;73.34;98881.78;5055457;28;20119;-62
2022/10/19 07:01:42;;;;;;;10.20;7.47;;;;;;;8.87;73.48;98869.69;5055665;28;20029;-63
2022/10/19 07:04:07;;;;;;;9.85;8.23;;;;;;;8.94;72.99;98860.16;5055308;28;20592;-63
2022/10/19 07:06:33;;;;;;;12.80;8.98;;;;;;;9.13;72.52;98866.50;5055407;28;20059;-63
2022/10/19 07:08:58;;;;;;;10.98;8.30;;;;;;;9.07;72.87;98870.59;5055892;28;20446;-64
2022/10/19 07:11:24;;;;;;;13.85;8.27;;;;;;;9.11;71.21;98844.44;5054532;28;20029;-63
2022/10/19 07:13:51;;;;;;;12.38;9.05;;;;;;;9.13;72.55;98874.53;5055097;28;20363;-63
2022/10/19 07:16:17;;;;;;;10.80;8.27;;;;;;;9.08;72.65;98866.94;5055181;28;20028;-62
2022/10/19 07:18:44;;;;;;;9.80;8.00;;;;;;;9.07;71.68;98875.06;5054255;28;20057;-63
2022/10/19 07:21:11;;;;;;;9.75;8.02;;;;;;;9.05;71.74;98869.91;5055250;28;20040;-63
2022/10/19 07:23:39;;;;;;;12.13;7.65;;;;;;;9.02;71.86;98873.66;5054783;28;20429;-62
2022/10/19 07:26:12;;;;;;;10.38;6.95;;;;;;;8.95;71.58;98861.88;5055081;28;20033;-61
2022/10/19 07:28:40;;;;;;;9.52;7.38;;;;;;;8.75;72.09;98835.13;5055156;28;20122;-63
2022/10/19 07:31:11;;;;;;;9.85;6.53;;;;;;;8.90;71.91;98864.94;5055015;28;20379;-64
2022/10/19 07:33:37;;;;;;;9.65;6.70;;;;;;;8.56;72.85;98822.56;5053833;28;20117;-63
2022/10/19 07:36:05;;;;;;;7.40;6.55;;;;;;;8.90;72.35;98856.06;5070652;28;20471;-63
2022/10/19 07:38:32;;;;;;;8.85;6.50;;;;;;;8.80;73.17;98864.06;5053961;28;20039;-62
2022/10/19 07:41:05;;;;;;;13.48;7.00;;;;;;;9.05;71.89;98857.38;5054949;28;20126;-63
2022/10/19 07:43:31;;;;;;;10.73;7.78;;;;;;;8.91;72.58;98857.75;5054893;28;20048;-63
2022/10/19 07:46:01;;;;;;;11.45;6.95;;;;;;;9.10;71.27;98864.13;5070702;28;20029;-63
2022/10/19 07:48:27;;;;;;;10.88;7.25;;;;;;;9.13;71.01;98869.19;5054834;28;20040;-63
2022/10/19 07:50:53;;;;;;;8.45;7.53;;;;;;;8.91;72.04;98865.75;5054561;28;20044;-62
2022/10/19 07:53:18;;;;;;;11.73;7.32;;;;;;;8.88;72.14;98869.56;5054487;28;20029;-64
2022/10/19 07:55:44;;;;;;;10.55;7.38;;;;;;;8.85;72.67;98872.50;5053361;28;20367;-63
2022/10/19 07:58:09;;;;;;;8.52;6.28;;;;;;;9.01;71.64;98866.66;5054519;28;20025;-64
2022/10/19 08:00:35;;;;;;;13.55;7.47;;;;;;;8.98;70.97;98855.38;5054319;28;20420;-62
2022/10/19 08:03:00;;;;;;;10.07;7.15;;;;;;;8.99;71.24;98863.28;5054731;28;20057;-63
2022/10/19 08:05:25;;;;;;;10.45;7.32;;;;;;;8.98;71.24;98861.59;5054226;28;20035;-63
2022/10/19 08:07:51;;;;;;;10.20;7.90;;;;;;;9.02;71.18;98859.47;5054231;28;20472;-62
2022/10/19 08:10:16;;;;;;;14.70;7.63;;;;;;;9.13;70.63;98861.16;5054210;28;20082;-64
2022/10/19 08:12:42;;;;;;;11.13;7.63;;;;;;;9.13;70.95;98864.69;5053879;28;20025;-62
2022/10/19 08:15:08;;;;;;;9.63;6.90;;;;;;;9.13;70.46;98866.50;5053864;28;20029;-63
2022/10/19 08:17:35;;;;;;;9.73;7.05;;;;;;;9.09;70.78;98879.31;5053949;28;20061;-62
2022/10/19 08:20:03;;;;;;;13.25;8.35;;;;;;;9.06;70.39;98871.56;5054633;28;20061;-63
2022/10/19 08:22:29;;;;;;;11.95;8.88;;;;;;;9.05;70.32;98856.53;5068821;28;20031;-64
2022/10/19 08:24:54;;;;;;;15.23;8.93;;;;;;;9.18;70.33;98864.28;5052661;28;20116;-64
2022/10/19 08:27:20;;;;;;;11.40;8.73;;;;;;;9.09;70.47;98847.28;5053198;28;20422;-63
2022/10/19 08:29:45;;;;;;;11.93;8.80;;;;;;;9.14;70.53;98861.03;5051858;28;20025;-64
2022/10/19 08:32:11;;;;;;;13.57;9.25;;;;;;;9.26;70.11;98856.41;5053838;28;20029;-64
2022/10/19 08:34:36;;;;;;;14.10;9.38;;;;;;;9.32;70.12;98857.69;5053991;28;20029;-64
2022/10/19 08:37:02;;;;;;;10.48;8.43;;;;;;;9.25;69.13;98825.34;5052918;28;20440;-63
2022/10/19 08:39:28;;;;;;;14.18;9.23;;;;;;;9.40;69.29;98851.63;5052710;28;20021;-62
2022/10/19 08:42:12;;;;;;;11.63;8.77;;;;;;;9.36;69.86;98859.09;5053199;28;20255;-63
2022/10/19 08:45:15;;;;;;;13.20;9.25;;;;;;;9.32;70.26;98855.84;5053795;28;20037;-64
2022/10/19 08:47:59;;;;;;;11.18;8.38;;;;;;;9.42;70.02;98847.84;5052269;28;20057;-63
2022/10/19 08:50:31;;;;;;;11.75;9.07;;;;;;;9.36;70.32;98851.09;5053436;28;20060;-63
2022/10/19 08:53:03;;;;;;;12.18;7.88;;;;;;;9.24;70.78;98842.34;5036132;28;20067;-62
2022/10/19 08:55:43;;;;;;;11.40;8.88;;;;;;;9.33;70.89;98848.69;5053491;28;20047;-63
2022/10/19 08:58:26;;;;;;;13.98;9.52;;;;;;;9.43;71.17;98859.38;5053369;28;20367;-62
2022/10/19 09:01:04;;;;;;;11.27;9.02;;;;;;;9.50;70.47;98848.94;5053238;28;20090;-63
2022/10/19 09:03:40;;;;;;;12.55;9.00;;;;;;;9.53;70.70;98860.22;5053370;28;20059;-63
2022/10/19 09:06:33;;;;;;;13.50;9.50;;;;;;;9.53;71.14;98860.22;5053151;28;20039;-63
2022/10/19 09:08:59;;;;;;;12.80;9.68;;;;;;;9.49;70.91;98858.81;5052796;28;20364;-62
2022/10/19 09:11:30;;;;;;;14.75;9.45;;;;;;;9.51;71.18;98859.50;5052678;28;20037;-63
2022/10/19 09:14:26;;;;;;;14.07;10.25;;;;;;;9.66;71.65;98857.25;5053113;28;20043;-64
2022/10/19 09:16:58;;;;;;;13.57;8.55;;;;;;;9.60;69.76;98839.94;5048283;28;20128;-63
2022/10/19 09:19:28;;;;;;;11.73;9.50;;;;;;;9.66;70.40;98856.44;5052482;28;20044;-62
2022/10/19 09:22:02;;;;;;;11.90;9.70;;;;;;;9.66;69.93;98867.13;5052656;28;20120;-63
2022/10/19 09:24:47;;;;;;;12.48;9.43;;;;;;;9.63;70.09;98865.56;5052824;28;20135;-64
2022/10/19 09:27:20;;;;;;;10.85;8.50;;;;;;;9.69;70.04;98864.97;5052479;28;20048;-63
2022/10/19 09:30:14;;;;;;;12.88;8.85;;;;;;;9.75;71.15;98869.75;5052490;28;20033;-63
2022/10/19 09:32:40;;;;;;;13.20;9.10;;;;;;;9.75;70.50;98875.09;5051515;28;20464;-63
2022/10/19 09:35:16;;;;;;;11.00;8.27;;;;;;;9.94;69.38;98872.56;5052813;28;20025;-64
2022/10/19 09:37:46;;;;;;;12.15;8.00;;;;;;;9.87;68.88;98861.59;5051417;28;20115;-63
2022/10/19 09:40:31;;;;;;;13.02;8.25;;;;;;;9.90;69.59;98859.50;5068124;28;20043;-63
2022/10/19 09:42:58;;;;;;;10.30;7.90;;;;;;;9.77;69.48;98872.28;5052457;28;20424;-65
2022/10/19 09:45:55;;;;;;;10.05;7.95;;;;;;;9.75;69.76;98874.28;5052289;28;20443;-63
2022/10/19 09:48:32;;;;;;;11.65;8.60;;;;;;;9.80;68.52;98864.00;5021733;28;20055;-64
2022/10/19 09:51:00;;;;;;;10.45;8.68;;;;;;;9.72;68.93;98885.25;5051303;28;20148;-63
2022/10/19 09:53:27;;;;;;;9.73;8.50;;;;;;;9.52;70.16;98882.56;5052411;28;20033;-63
2022/10/19 09:55:59;;;;;;;11.30;8.23;;;;;;;9.50;70.47;98886.38;5052326;28;20029;-63
2022/10/19 09:58:27;;;;;;;10.45;7.28;;;;;;;9.46;70.38;98875.13;5051776;28;20044;-63
2022/10/19 10:00:55;;;;;;;12.85;8.10;;;;;;;9.63;69.04;98876.25;5052346;28;20118;-64
2022/10/19 10:03:28;;;;;;;10.27;7.07;;;;;;;9.43;69.87;98878.09;5068048;28;20107;-63
2022/10/19 10:06:02;;;;;;;10.38;7.40;;;;;;;9.38;70.30;98867.81;5052618;28;20117;-64
2022/10/19 10:08:30;;;;;;;9.15;5.45;;;;;;;9.40;69.97;98867.66;5052011;28;20036;-64
2022/10/19 10:11:09;;;;;;;8.13;5.60;;;;;;;9.45;69.48;98874.28;5052141;28;20037;-63
2022/10/19 10:13:37;;;;;;;6.85;5.50;;;;;;;9.27;70.61;98879.47;5052681;28;20037;-64
2022/10/19 10:16:06;;;;;;;7.07;5.35;;;;;;;9.27;70.77;98876.81;5052126;28;20025;-64
2022/10/19 10:18:37;;;;;;;8.50;5.00;;;;;;;9.21;71.04;98864.00;5052291;28;20033;-65
2022/10/19 10:21:02;;;;;;;6.13;4.88;;;;;;;9.31;70.72;98867.53;5052324;28;20222;-63
2022/10/19 10:23:33;;;;;;;8.50;4.57;;;;;;;9.36;71.13;98866.25;5049162;28;20135;-64
2022/10/19 10:26:00;;;;;;;4.95;4.43;;;;;;;9.51;70.20;98882.69;5035899;28;20100;-65
2022/10/19 10:28:28;;;;;;;8.13;4.72;;;;;;;9.57;70.38;98880.31;5047478;28;20443;-64
2022/10/19 10:31:02;;;;;;;6.22;4.22;;;;;;;9.66;70.13;98880.47;5050998;28;20106;-64
2022/10/19 10:33:29;;;;;;;6.85;4.63;;;;;;;9.71;69.88;98875.53;5051424;28;20414;-65
2022/10/19 10:36:00;;;;;;;7.93;4.60;;;;;;;9.81;69.19;98876.38;5050979;28;20123;-64
2022/10/19 10:38:29;;;;;;;6.10;4.70;;;;;;;9.69;68.95;98856.13;5047279;28;20049;-63
2022/10/19 10:40:59;;;;;;;6.30;4.63;;;;;;;9.91;68.17;98887.91;5031339;28;20041;-64
2022/10/19 10:43:31;;;;;;;6.97;4.85;;;;;;;9.95;67.72;98887.63;5046971;28;20394;-64
2022/10/19 10:46:04;;;;;;;9.10;4.72;;;;;;;9.79;68.25;98874.84;5051176;28;20025;-64
2022/10/19 10:48:36;;;;;;;6.15;5.55;;;;;;;9.69;68.18;98853.47;5051625;28;20394;-66
2022/10/19 10:51:02;;;;;;;5.47;4.93;;;;;;;9.92;66.79;98853.97;5039787;28;20068;-64
2022/10/19 10:53:44;;;;;;;6.75;5.32;;;;;;;9.99;67.00;98860.44;5031193;28;20049;-65
2022/10/19 10:56:24;;;;;;;6.63;4.95;;;;;;;10.07;67.50;98861.56;5038785;28;20060;-65
2022/10/19 10:59:04;;;;;;;6.80;5.18;;;;;;;10.30;67.55;98868.25;5049035;28;20163;-65
2022/10/19 11:01:38;;;;;;;5.00;4.50;;;;;;;10.61;65.43;98861.84;5051496;28;20076;-66
2022/10/19 11:04:10;;;;;;;7.63;5.87;;;;;;;10.66;65.52;98853.34;5049624;28;20083;-65
2022/10/19 11:06:42;;;;;;;6.72;5.20;;;;;;;10.80;65.37;98846.66;5040785;28;20029;-65
2022/10/19 11:09:19;;;;;;;6.95;5.60;;;;;;;10.93;64.04;98844.47;5041862;28;20021;-66
2022/10/19 11:11:48;;;;;;;7.20;5.60;;;;;;;10.91;63.67;98838.41;5055015;28;20033;-66
2022/10/19 11:14:38;;;;;;;6.28;5.35;;;;;;;11.13;62.90;98833.63;5037583;28;20030;-65
2022/10/19 11:17:09;;;;;;;7.30;5.18;;;;;;;10.87;63.02;98837.88;5066486;28;20041;-66
2022/10/19 11:19:39;;;;;;;8.57;5.93;;;;;;;10.77;62.91;98819.19;5051567;28;20107;-65
2022/10/19 11:22:33;;;;;;;6.63;5.28;;;;;;;10.79;64.25;98839.59;5055031;28;20063;-65
2022/10/19 11:25:21;;;;;;;5.80;5.20;;;;;;;10.87;63.39;98831.69;5054951;28;20032;-66
2022/10/19 11:27:53;;;;;;;6.57;5.75;;;;;;;10.76;63.43;98841.59;5053156;28;20534;-65
2022/10/19 11:30:21;;;;;;;6.63;5.32;;;;;;;10.68;62.73;98841.50;5047996;28;20411;-65
2022/10/19 11:33:06;;;;;;;6.22;5.63;;;;;;;10.58;63.61;98844.22;5045109;28;20211;-65
2022/10/19 11:35:51;;;;;;;6.22;5.35;;;;;;;10.66;63.32;98835.47;5051436;28;20083;-66
2022/10/19 11:38:38;;;;;;;5.63;4.97;;;;;;;10.68;63.04;98841.50;5035285;28;20329;-66
2022/10/19 11:41:09;;;;;;;6.20;5.60;;;;;;;10.57;63.25;98847.03;5053358;28;20518;-66
2022/10/19 11:44:05;;;;;;;5.25;4.75;;;;;;;10.54;63.61;98848.19;5048182;28;20045;-65
2022/10/19 11:46:53;;;;;;;4.70;3.45;;;;;;;10.55;63.31;98832.97;5055023;28;20041;-64